EWG149 EDDS-EDDH
Flight info
| Callsign | EWG149 |
|---|---|
| Flight time | 0h 57m |
| Altitude | 35000 |
| Route | OKIBA4H OKIBA N851 RIMKI Z99 LOHRE DCT MASEK DCT ELNAT/N0443F360 P605 NOLGO NOLGO3P |
| Aircraft | A319/M-SDE3FGHIRWY/LB1 |
Departure
| Time | 2026-04-26 16:21 |
|---|---|
| Airport | Stuttgart Airport (EDDS) |
Arrival
| Time | 2026-04-26 17:18 |
|---|---|
| Airport | Hamburg Helmut Schmidt Airport (EDDH) |
| Time | Latitude | Longitude | Altitude | Speed | Heading |
|---|---|---|---|---|---|
| 2026-04-26 15:59 | 48.68802 | 9.19748 | 1302 ft | 0 kts | 163° |
| 2026-04-26 16:17 | 48.68797 | 9.19750 | 1302 ft | 3 kts | 163° |
| 2026-04-26 16:18 | 48.68760 | 9.19779 | 1299 ft | 8 kts | 129° |
| 2026-04-26 16:18 | 48.68699 | 9.19980 | 1290 ft | 16 kts | 164° |
| 2026-04-26 16:19 | 48.68668 | 9.19994 | 1288 ft | 0 kts | 163° |
| 2026-04-26 16:19 | 48.68666 | 9.19995 | 1287 ft | 2 kts | 162° |
| 2026-04-26 16:19 | 48.68587 | 9.20081 | 1284 ft | 12 kts | 82° |
| 2026-04-26 16:20 | 48.68628 | 9.20301 | 1278 ft | 36 kts | 74° |
| 2026-04-26 16:20 | 48.69041 | 9.22452 | 1232 ft | 165 kts | 72° |
| 2026-04-26 16:20 | 48.69361 | 9.24165 | 1737 ft | 171 kts | 73° |
| 2026-04-26 16:21 | 48.69666 | 9.25907 | 2501 ft | 171 kts | 71° |
| 2026-04-26 16:21 | 48.70016 | 9.27718 | 2952 ft | 189 kts | 71° |
| 2026-04-26 16:21 | 48.70403 | 9.29742 | 3296 ft | 212 kts | 71° |
| 2026-04-26 16:21 | 48.70832 | 9.32020 | 3716 ft | 238 kts | 72° |
| 2026-04-26 16:22 | 48.71304 | 9.34533 | 4304 ft | 256 kts | 72° |
| 2026-04-26 16:22 | 48.71797 | 9.37167 | 5166 ft | 264 kts | 73° |
| 2026-04-26 16:22 | 48.72305 | 9.39865 | 6027 ft | 270 kts | 73° |
| 2026-04-26 16:22 | 48.72823 | 9.42597 | 6872 ft | 275 kts | 73° |
| 2026-04-26 16:23 | 48.73364 | 9.45415 | 7691 ft | 282 kts | 73° |
| 2026-04-26 16:23 | 48.74013 | 9.48231 | 8524 ft | 286 kts | 60° |
| 2026-04-26 16:23 | 48.75247 | 9.50600 | 9367 ft | 289 kts | 38° |
| 2026-04-26 16:23 | 48.76987 | 9.52120 | 10171 ft | 291 kts | 15° |
| 2026-04-26 16:24 | 48.78988 | 9.52546 | 10858 ft | 297 kts | 356° |
| 2026-04-26 16:24 | 48.81133 | 9.52349 | 11148 ft | 320 kts | 354° |
| 2026-04-26 16:24 | 48.83424 | 9.52072 | 11503 ft | 338 kts | 353° |
| 2026-04-26 16:24 | 48.85798 | 9.51767 | 12155 ft | 346 kts | 353° |
| 2026-04-26 16:25 | 48.88215 | 9.51464 | 12887 ft | 351 kts | 353° |
| 2026-04-26 16:25 | 48.90667 | 9.51173 | 13623 ft | 355 kts | 354° |
| 2026-04-26 16:25 | 48.93141 | 9.50892 | 14335 ft | 358 kts | 353° |
| 2026-04-26 16:25 | 48.95607 | 9.50274 | 14989 ft | 360 kts | 343° |
| 2026-04-26 16:26 | 48.97959 | 9.48941 | 15659 ft | 362 kts | 333° |
| 2026-04-26 16:26 | 48.99462 | 9.47832 | 16095 ft | 364 kts | 333° |
| 2026-04-26 16:26 | 49.02527 | 9.45570 | 16993 ft | 368 kts | 333° |
| 2026-04-26 16:26 | 49.04848 | 9.43868 | 17649 ft | 371 kts | 333° |
| 2026-04-26 16:27 | 49.07186 | 9.42157 | 18313 ft | 375 kts | 333° |
| 2026-04-26 16:27 | 49.08748 | 9.41012 | 18698 ft | 377 kts | 333° |
| 2026-04-26 16:27 | 49.11899 | 9.38697 | 19442 ft | 381 kts | 333° |
| 2026-04-26 16:27 | 49.14295 | 9.36928 | 20014 ft | 384 kts | 332° |
| 2026-04-26 16:28 | 49.16706 | 9.35143 | 20599 ft | 387 kts | 332° |
| 2026-04-26 16:28 | 49.19150 | 9.33352 | 21179 ft | 391 kts | 334° |
| 2026-04-26 16:28 | 49.20873 | 9.32359 | 21569 ft | 394 kts | 341° |
| 2026-04-26 16:28 | 49.24459 | 9.31354 | 22330 ft | 400 kts | 354° |
| 2026-04-26 16:29 | 49.27242 | 9.31149 | 22882 ft | 402 kts | 355° |
| 2026-04-26 16:29 | 49.29102 | 9.31015 | 23220 ft | 404 kts | 355° |
| 2026-04-26 16:29 | 49.31920 | 9.30808 | 23734 ft | 407 kts | 355° |
| 2026-04-26 16:29 | 49.34756 | 9.30606 | 24159 ft | 411 kts | 356° |
| 2026-04-26 16:30 | 49.37625 | 9.30851 | 24601 ft | 415 kts | 3° |
| 2026-04-26 16:30 | 49.40507 | 9.31282 | 25059 ft | 416 kts | 3° |
| 2026-04-26 16:30 | 49.43389 | 9.31713 | 25489 ft | 417 kts | 3° |
| 2026-04-26 16:30 | 49.46290 | 9.32144 | 25909 ft | 419 kts | 3° |
| 2026-04-26 16:31 | 49.49203 | 9.32579 | 26327 ft | 422 kts | 3° |
| 2026-04-26 16:31 | 49.52133 | 9.33014 | 26745 ft | 424 kts | 3° |
| 2026-04-26 16:31 | 49.55078 | 9.33449 | 27160 ft | 426 kts | 3° |
| 2026-04-26 16:31 | 49.58036 | 9.33885 | 27563 ft | 428 kts | 3° |
| 2026-04-26 16:32 | 49.61013 | 9.34322 | 27974 ft | 430 kts | 3° |
| 2026-04-26 16:32 | 49.64000 | 9.34755 | 28362 ft | 433 kts | 3° |
| 2026-04-26 16:32 | 49.67005 | 9.35191 | 28748 ft | 435 kts | 3° |
| 2026-04-26 16:32 | 49.70027 | 9.35639 | 29119 ft | 437 kts | 3° |
| 2026-04-26 16:33 | 49.73064 | 9.36098 | 29479 ft | 439 kts | 3° |
| 2026-04-26 16:33 | 49.76097 | 9.36825 | 29824 ft | 444 kts | 11° |
| 2026-04-26 16:33 | 49.79106 | 9.37977 | 30174 ft | 446 kts | 11° |
| 2026-04-26 16:33 | 49.82127 | 9.39143 | 30488 ft | 448 kts | 11° |
| 2026-04-26 16:34 | 49.85159 | 9.40317 | 30776 ft | 450 kts | 11° |
| 2026-04-26 16:34 | 49.88212 | 9.41496 | 31074 ft | 451 kts | 11° |
| 2026-04-26 16:34 | 49.91252 | 9.42665 | 31466 ft | 450 kts | 11° |
| 2026-04-26 16:34 | 49.94250 | 9.43821 | 31870 ft | 449 kts | 11° |
| 2026-04-26 16:35 | 49.97276 | 9.44993 | 32281 ft | 448 kts | 11° |
| 2026-04-26 16:35 | 50.00304 | 9.46163 | 32671 ft | 447 kts | 11° |
| 2026-04-26 16:35 | 50.03317 | 9.47330 | 33071 ft | 446 kts | 11° |
| 2026-04-26 16:35 | 50.06336 | 9.48465 | 33227 ft | 443 kts | 8° |
| 2026-04-26 16:36 | 50.12389 | 9.49602 | 33249 ft | 436 kts | 3° |
| 2026-04-26 16:36 | 50.18421 | 9.50601 | 33250 ft | 435 kts | 4° |
| 2026-04-26 16:37 | 50.24444 | 9.51606 | 33251 ft | 435 kts | 4° |
| 2026-04-26 16:37 | 50.30466 | 9.52614 | 33255 ft | 436 kts | 4° |
| 2026-04-26 16:38 | 50.36497 | 9.53638 | 33255 ft | 436 kts | 4° |
| 2026-04-26 16:38 | 50.42535 | 9.54665 | 33253 ft | 436 kts | 4° |
| 2026-04-26 16:39 | 50.48530 | 9.55680 | 33271 ft | 435 kts | 4° |
| 2026-04-26 16:39 | 50.54558 | 9.56693 | 33261 ft | 435 kts | 4° |
| 2026-04-26 16:40 | 50.60581 | 9.57717 | 33261 ft | 435 kts | 4° |
| 2026-04-26 16:40 | 50.66597 | 9.58748 | 33258 ft | 435 kts | 4° |
| 2026-04-26 16:41 | 50.72614 | 9.59781 | 33256 ft | 435 kts | 4° |
| 2026-04-26 16:41 | 50.78630 | 9.60882 | 33263 ft | 435 kts | 4° |
| 2026-04-26 16:42 | 50.84644 | 9.62074 | 33253 ft | 436 kts | 5° |
| 2026-04-26 16:42 | 50.90629 | 9.63275 | 33255 ft | 435 kts | 5° |
| 2026-04-26 16:43 | 50.96642 | 9.64453 | 33263 ft | 435 kts | 4° |
| 2026-04-26 16:43 | 51.02654 | 9.65616 | 33260 ft | 435 kts | 4° |
| 2026-04-26 16:44 | 51.08707 | 9.66798 | 33256 ft | 436 kts | 4° |
| 2026-04-26 16:44 | 51.14727 | 9.68080 | 33265 ft | 437 kts | 5° |
| 2026-04-26 16:45 | 51.20701 | 9.69486 | 33278 ft | 437 kts | 5° |
| 2026-04-26 16:45 | 51.26724 | 9.70925 | 33271 ft | 437 kts | 5° |
| 2026-04-26 16:46 | 51.32736 | 9.72330 | 33268 ft | 436 kts | 5° |
| 2026-04-26 16:46 | 51.38746 | 9.73732 | 33266 ft | 436 kts | 5° |
| 2026-04-26 16:47 | 51.44759 | 9.75145 | 33268 ft | 437 kts | 5° |
| 2026-04-26 16:47 | 51.50783 | 9.76559 | 33264 ft | 438 kts | 5° |
| 2026-04-26 16:48 | 51.56817 | 9.77979 | 33266 ft | 438 kts | 5° |
| 2026-04-26 16:48 | 51.62854 | 9.79405 | 33271 ft | 438 kts | 5° |
| 2026-04-26 16:49 | 51.68892 | 9.80841 | 33273 ft | 438 kts | 5° |
| 2026-04-26 16:49 | 51.74922 | 9.82279 | 33265 ft | 438 kts | 5° |
| 2026-04-26 16:50 | 51.80961 | 9.83715 | 33269 ft | 438 kts | 5° |
| 2026-04-26 16:50 | 51.86957 | 9.85145 | 33263 ft | 438 kts | 5° |
| 2026-04-26 16:51 | 51.92993 | 9.86588 | 33267 ft | 439 kts | 4° |
| 2026-04-26 16:51 | 51.99033 | 9.88053 | 33271 ft | 439 kts | 4° |
| 2026-04-26 16:52 | 52.04065 | 9.89265 | 33270 ft | 439 kts | 4° |
| 2026-04-26 16:52 | 52.11136 | 9.90968 | 33285 ft | 439 kts | 4° |
| 2026-04-26 16:53 | 52.17179 | 9.92426 | 33285 ft | 439 kts | 4° |
| 2026-04-26 16:53 | 52.23222 | 9.93898 | 33283 ft | 439 kts | 4° |
| 2026-04-26 16:54 | 52.26252 | 9.94638 | 33100 ft | 440 kts | 4° |
| 2026-04-26 16:54 | 52.29283 | 9.95376 | 32827 ft | 441 kts | 4° |
| 2026-04-26 16:54 | 52.32318 | 9.96117 | 32563 ft | 441 kts | 4° |
| 2026-04-26 16:54 | 52.35352 | 9.96854 | 32322 ft | 442 kts | 4° |
| 2026-04-26 16:55 | 52.38403 | 9.97598 | 32047 ft | 443 kts | 4° |
| 2026-04-26 16:55 | 52.41465 | 9.98349 | 31045 ft | 448 kts | 4° |
| 2026-04-26 16:55 | 52.44570 | 9.99109 | 30140 ft | 451 kts | 4° |
| 2026-04-26 16:55 | 52.47643 | 9.99869 | 29577 ft | 443 kts | 4° |
| 2026-04-26 16:56 | 52.53626 | 10.01358 | 28340 ft | 432 kts | 4° |
| 2026-04-26 16:56 | 52.56568 | 10.02314 | 27726 ft | 431 kts | 11° |
| 2026-04-26 16:56 | 52.59444 | 10.03601 | 27124 ft | 427 kts | 11° |
| 2026-04-26 16:57 | 52.62301 | 10.04879 | 26512 ft | 423 kts | 11° |
| 2026-04-26 16:57 | 52.65130 | 10.06147 | 25908 ft | 420 kts | 11° |
| 2026-04-26 16:57 | 52.70663 | 10.08029 | 25519 ft | 391 kts | 5° |
| 2026-04-26 16:58 | 52.73305 | 10.08795 | 25431 ft | 383 kts | 5° |
| 2026-04-26 16:58 | 52.75046 | 10.09282 | 25371 ft | 384 kts | 5° |
| 2026-04-26 16:58 | 52.81248 | 10.10994 | 25106 ft | 398 kts | 5° |
| 2026-04-26 16:59 | 52.84008 | 10.11758 | 24882 ft | 404 kts | 5° |
| 2026-04-26 16:59 | 52.89536 | 10.13334 | 24406 ft | 403 kts | 6° |
| 2026-04-26 17:00 | 52.95036 | 10.14936 | 23936 ft | 400 kts | 6° |
| 2026-04-26 17:00 | 53.00500 | 10.15980 | 23391 ft | 391 kts | 355° |
| 2026-04-26 17:00 | 53.03216 | 10.15850 | 23115 ft | 389 kts | 354° |
| 2026-04-26 17:01 | 53.05909 | 10.15707 | 22702 ft | 386 kts | 354° |
| 2026-04-26 17:01 | 53.08591 | 10.15561 | 22214 ft | 384 kts | 354° |
| 2026-04-26 17:01 | 53.11255 | 10.15413 | 21813 ft | 383 kts | 354° |
| 2026-04-26 17:01 | 53.13877 | 10.15263 | 21431 ft | 381 kts | 354° |
| 2026-04-26 17:02 | 53.16519 | 10.15112 | 21046 ft | 379 kts | 354° |
| 2026-04-26 17:02 | 53.19147 | 10.14959 | 20665 ft | 377 kts | 354° |
| 2026-04-26 17:02 | 53.21763 | 10.14805 | 20290 ft | 375 kts | 354° |
| 2026-04-26 17:02 | 53.24365 | 10.14652 | 19924 ft | 373 kts | 354° |
| 2026-04-26 17:03 | 53.26958 | 10.14498 | 19552 ft | 372 kts | 354° |
| 2026-04-26 17:03 | 53.29530 | 10.14343 | 19150 ft | 368 kts | 354° |
| 2026-04-26 17:03 | 53.32081 | 10.14190 | 18718 ft | 366 kts | 354° |
| 2026-04-26 17:03 | 53.34613 | 10.14029 | 18275 ft | 361 kts | 354° |
| 2026-04-26 17:04 | 53.37113 | 10.13863 | 17774 ft | 358 kts | 354° |
| 2026-04-26 17:04 | 53.39590 | 10.13695 | 17259 ft | 355 kts | 354° |
| 2026-04-26 17:04 | 53.42051 | 10.13527 | 16769 ft | 352 kts | 354° |
| 2026-04-26 17:04 | 53.44488 | 10.13356 | 16293 ft | 349 kts | 354° |
| 2026-04-26 17:05 | 53.46902 | 10.13183 | 15820 ft | 346 kts | 354° |
| 2026-04-26 17:05 | 53.49305 | 10.13007 | 15350 ft | 344 kts | 354° |
| 2026-04-26 17:05 | 53.51683 | 10.12828 | 14881 ft | 341 kts | 354° |
| 2026-04-26 17:05 | 53.54049 | 10.12838 | 14413 ft | 342 kts | 5° |
| 2026-04-26 17:06 | 53.56297 | 10.14149 | 13960 ft | 347 kts | 27° |
| 2026-04-26 17:06 | 53.58143 | 10.16783 | 13478 ft | 350 kts | 43° |
| 2026-04-26 17:06 | 53.59775 | 10.19810 | 12965 ft | 348 kts | 44° |
| 2026-04-26 17:06 | 53.61382 | 10.22837 | 12480 ft | 345 kts | 44° |
| 2026-04-26 17:07 | 53.62977 | 10.25846 | 12278 ft | 344 kts | 44° |
| 2026-04-26 17:07 | 53.64532 | 10.28791 | 12290 ft | 328 kts | 44° |
| 2026-04-26 17:07 | 53.66009 | 10.31610 | 12288 ft | 315 kts | 44° |
| 2026-04-26 17:07 | 53.67427 | 10.34326 | 12279 ft | 310 kts | 44° |
| 2026-04-26 17:08 | 53.68839 | 10.37038 | 12000 ft | 305 kts | 45° |
| 2026-04-26 17:08 | 53.70209 | 10.39678 | 11676 ft | 296 kts | 44° |
| 2026-04-26 17:08 | 53.71561 | 10.42284 | 11371 ft | 293 kts | 44° |
| 2026-04-26 17:08 | 53.72882 | 10.44837 | 11234 ft | 283 kts | 44° |
| 2026-04-26 17:09 | 53.74139 | 10.47283 | 11112 ft | 267 kts | 44° |
| 2026-04-26 17:09 | 53.74544 | 10.48074 | 11068 ft | 262 kts | 44° |
| 2026-04-26 17:09 | 53.76536 | 10.51550 | 10655 ft | 235 kts | 24° |
| 2026-04-26 17:09 | 53.78048 | 10.52201 | 10208 ft | 223 kts | 352° |
| 2026-04-26 17:10 | 53.79512 | 10.51365 | 9704 ft | 226 kts | 328° |
| 2026-04-26 17:10 | 53.80850 | 10.49904 | 9153 ft | 231 kts | 325° |
| 2026-04-26 17:10 | 53.82171 | 10.48379 | 8615 ft | 229 kts | 324° |
| 2026-04-26 17:10 | 53.83330 | 10.46584 | 8099 ft | 226 kts | 301° |
| 2026-04-26 17:11 | 53.83757 | 10.44071 | 7594 ft | 225 kts | 271° |
| 2026-04-26 17:11 | 53.83615 | 10.41434 | 7048 ft | 227 kts | 257° |
| 2026-04-26 17:11 | 53.82815 | 10.39112 | 6434 ft | 233 kts | 232° |
| 2026-04-26 17:11 | 53.81757 | 10.37008 | 5834 ft | 234 kts | 231° |
| 2026-04-26 17:12 | 53.79741 | 10.32917 | 5119 ft | 217 kts | 231° |
| 2026-04-26 17:12 | 53.79116 | 10.31631 | 4920 ft | 210 kts | 232° |
| 2026-04-26 17:13 | 53.77282 | 10.27864 | 4341 ft | 207 kts | 231° |
| 2026-04-26 17:13 | 53.76370 | 10.25995 | 4059 ft | 206 kts | 232° |
| 2026-04-26 17:13 | 53.74572 | 10.22316 | 3500 ft | 201 kts | 231° |
| 2026-04-26 17:14 | 53.73682 | 10.20497 | 3226 ft | 199 kts | 231° |
| 2026-04-26 17:14 | 53.71972 | 10.17004 | 2694 ft | 189 kts | 231° |
| 2026-04-26 17:14 | 53.71143 | 10.15309 | 2475 ft | 183 kts | 233° |
| 2026-04-26 17:15 | 53.69587 | 10.12142 | 1955 ft | 165 kts | 234° |
| 2026-04-26 17:15 | 53.68898 | 10.10741 | 1733 ft | 147 kts | 233° |
| 2026-04-26 17:15 | 53.68275 | 10.09472 | 1539 ft | 135 kts | 236° |
| 2026-04-26 17:16 | 53.67680 | 10.08258 | 1357 ft | 133 kts | 236° |
| 2026-04-26 17:16 | 53.67097 | 10.07071 | 1178 ft | 130 kts | 234° |
| 2026-04-26 17:16 | 53.66523 | 10.05904 | 1001 ft | 129 kts | 235° |
| 2026-04-26 17:16 | 53.65948 | 10.04738 | 815 ft | 130 kts | 236° |
| 2026-04-26 17:17 | 53.65364 | 10.03554 | 653 ft | 132 kts | 235° |
| 2026-04-26 17:17 | 53.64780 | 10.02366 | 454 ft | 131 kts | 238° |
| 2026-04-26 17:17 | 53.64196 | 10.01182 | 264 ft | 130 kts | 236° |
| 2026-04-26 17:17 | 53.63627 | 10.00031 | 86 ft | 129 kts | 236° |
| 2026-04-26 17:18 | 53.63106 | 9.98957 | 46 ft | 100 kts | 229° |
| 2026-04-26 17:18 | 53.62734 | 9.98203 | 43 ft | 72 kts | 230° |
| 2026-04-26 17:18 | 53.62518 | 9.97801 | 41 ft | 22 kts | 205° |
| 2026-04-26 17:18 | 53.62432 | 9.97925 | 46 ft | 17 kts | 78° |
| 2026-04-26 17:19 | 53.62466 | 9.98212 | 45 ft | 13 kts | 73° |
| 2026-04-26 17:19 | 53.62487 | 9.98360 | 47 ft | 13 kts | 78° |
| 2026-04-26 17:19 | 53.62500 | 9.98517 | 47 ft | 14 kts | 85° |
| 2026-04-26 17:20 | 53.62514 | 9.98679 | 47 ft | 14 kts | 78° |
| 2026-04-26 17:20 | 53.62528 | 9.98788 | 47 ft | 15 kts | 78° |
| 2026-04-26 17:20 | 53.62554 | 9.99019 | 47 ft | 15 kts | 79° |
| 2026-04-26 17:20 | 53.62576 | 9.99214 | 47 ft | 18 kts | 79° |
| 2026-04-26 17:21 | 53.62600 | 9.99420 | 47 ft | 18 kts | 79° |
| 2026-04-26 17:21 | 53.62620 | 9.99592 | 47 ft | 11 kts | 79° |
| 2026-04-26 17:21 | 53.62635 | 9.99726 | 47 ft | 12 kts | 79° |
| 2026-04-26 17:21 | 53.62675 | 9.99841 | 46 ft | 12 kts | 34° |
| 2026-04-26 17:22 | 53.62753 | 9.99916 | 42 ft | 13 kts | 29° |
| 2026-04-26 17:22 | 53.62812 | 9.99970 | 47 ft | 8 kts | 28° |
| 2026-04-26 17:22 | 53.62853 | 10.00018 | 45 ft | 7 kts | 41° |
| 2026-04-26 17:22 | 53.62893 | 10.00073 | 47 ft | 7 kts | 34° |
| 2026-04-26 17:23 | 53.62917 | 10.00135 | 48 ft | 7 kts | 92° |
| 2026-04-26 17:23 | 53.62900 | 10.00193 | 48 ft | 4 kts | 121° |
| 2026-04-26 17:23 | 53.62891 | 10.00217 | 46 ft | 0 kts | 123° |